Time;durP1;ratioP1;P1;durP2;ratioP2;P2;SDS_P1;SDS_P2;PMS_P1;PMS_P2;Temp;Humidity;BMP_temperature;BMP_pressure;BME280_temperature;BME280_humidity;BME280_pressure;Samples;Min_cycle;Max_cycle;Signal;HPM_P1;HPM_P2
2022/08/08 00:01:52;;;;;;;5.9;4.5;;;;;;;18.62;90.73535;941.6711;;;;
2022/08/08 00:04:17;;;;;;;4.8;4.3;;;;;;;18.57;91.02637;941.6345;;;;
2022/08/08 00:06:43;;;;;;;4.6;4.2;;;;;;;18.46;91.07129;941.6275;;;;
2022/08/08 00:09:08;;;;;;;4.9;4.4;;;;;;;18.35;90.77246;941.5756;;;;
2022/08/08 00:11:33;;;;;;;4.7;4.3;;;;;;;18.31;90.46289;941.5656;;;;
2022/08/08 00:14:02;;;;;;;5;3.9;;;;;;;18.23;90.74609;941.5903;;;;
2022/08/08 00:16:28;;;;;;;5.6;4.4;;;;;;;18.21;90.57031;941.5757;;;;
2022/08/08 00:18:53;;;;;;;4.7;4.3;;;;;;;18.29;89.99219;941.4991;;;;
2022/08/08 00:21:19;;;;;;;5.1;4.6;;;;;;;18.33;89.66211;941.5081;;;;
2022/08/08 00:23:44;;;;;;;4.6;4.2;;;;;;;18.36;89.36719;941.5246;;;;
2022/08/08 00:26:09;;;;;;;5.2;4.7;;;;;;;18.34;89.03809;941.5322;;;;
2022/08/08 00:28:34;;;;;;;5;4.5;;;;;;;18.3;88.18066;941.5748;;;;
2022/08/08 00:30:59;;;;;;;5.5;4.5;;;;;;;18.27;88.12891;941.5502;;;;
2022/08/08 00:33:24;;;;;;;5;4.5;;;;;;;18.24;88.2959;941.5168;;;;
2022/08/08 00:35:49;;;;;;;4.5;4.1;;;;;;;18.19;88.08887;941.5664;;;;
2022/08/08 00:38:16;;;;;;;4.4;4;;;;;;;18.09;87.59473;941.4702;;;;
2022/08/08 00:40:42;;;;;;;5.3;4.8;;;;;;;17.95;88.89941;941.5349;;;;
2022/08/08 00:43:07;;;;;;;5.2;4.7;;;;;;;17.84;89.50684;941.5242;;;;
2022/08/08 00:45:32;;;;;;;5;4.5;;;;;;;17.75;89.68555;941.5468;;;;
2022/08/08 00:47:57;;;;;;;5.3;4.8;;;;;;;17.58;90.34668;941.4558;;;;
2022/08/08 00:50:22;;;;;;;5.3;4.8;;;;;;;17.42;91.28613;941.5036;;;;
2022/08/08 00:52:47;;;;;;;7.2;4.6;;;;;;;17.4;91.16797;941.3731;;;;
2022/08/08 00:55:17;;;;;;;6.4;4.8;;;;;;;17.48;90.73242;941.4908;;;;
2022/08/08 00:57:43;;;;;;;5.8;5.3;;;;;;;17.45;91.11914;941.4461;;;;
2022/08/08 01:00:17;;;;;;;5.5;5;;;;;;;17.45;90.8877;941.4791;;;;
2022/08/08 01:02:42;;;;;;;5.8;4.4;;;;;;;17.39;90.75879;941.457;;;;
2022/08/08 01:05:07;;;;;;;5.6;5;;;;;;;17.13;92.46777;941.5175;;;;
2022/08/08 01:07:33;;;;;;;5.6;5.1;;;;;;;17.04;92.48438;941.4799;;;;
2022/08/08 01:09:57;;;;;;;6.1;5.1;;;;;;;17.05;91.99902;941.5128;;;;
2022/08/08 01:12:23;;;;;;;5.3;4.9;;;;;;;17.07;91.61816;941.4579;;;;
2022/08/08 01:14:48;;;;;;;5.5;4.8;;;;;;;17.1;90.95605;941.4672;;;;
2022/08/08 01:17:13;;;;;;;5.6;5;;;;;;;17.1;90.50195;941.4414;;;;
2022/08/08 01:19:38;;;;;;;5.9;4.6;;;;;;;17.01;90.05469;941.4009;;;;
2022/08/08 01:22:04;;;;;;;5.9;4.3;;;;;;;16.97;89.58203;941.4384;;;;
2022/08/08 01:24:30;;;;;;;5.3;4.8;;;;;;;16.9;90.21777;941.4576;;;;
2022/08/08 01:26:55;;;;;;;5.5;5;;;;;;;16.86;90.85645;941.4766;;;;
2022/08/08 01:29:20;;;;;;;6.1;4.9;;;;;;;16.78;91.52344;941.4763;;;;
2022/08/08 01:31:45;;;;;;;5.7;5.2;;;;;;;16.78;91.61621;941.4673;;;;
2022/08/08 01:34:14;;;;;;;6.2;5;;;;;;;16.7;91.7627;941.423;;;;
2022/08/08 01:36:42;;;;;;;6;5.4;;;;;;;16.7;91.60059;941.4431;;;;
2022/08/08 01:39:07;;;;;;;6.1;5.5;;;;;;;16.68;91.6084;941.3725;;;;
2022/08/08 01:41:32;;;;;;;6.9;5.2;;;;;;;16.64;91.65723;941.4409;;;;
2022/08/08 01:44:00;;;;;;;5.7;5.1;;;;;;;16.54;91.37012;941.4833;;;;
2022/08/08 01:46:27;;;;;;;6.3;5.4;;;;;;;16.49;91.46484;941.4315;;;;
2022/08/08 01:48:53;;;;;;;5.9;5.4;;;;;;;16.36;91.66992;941.433;;;;
2022/08/08 01:51:18;;;;;;;5.4;4.9;;;;;;;16.36;91.14941;941.4354;;;;
2022/08/08 01:53:43;;;;;;;5.5;4.7;;;;;;;16.32;91.11523;941.4961;;;;
2022/08/08 01:56:08;;;;;;;5.9;5.3;;;;;;;16.31;91.25391;941.5114;;;;
2022/08/08 01:58:34;;;;;;;6.3;5.2;;;;;;;16.27;91.57031;941.5172;;;;
2022/08/08 02:01:00;;;;;;;6.3;5.7;;;;;;;16.27;91.55664;941.5293;;;;
2022/08/08 02:03:25;;;;;;;6.3;5.1;;;;;;;16.31;91.46191;941.5555;;;;
2022/08/08 02:05:53;;;;;;;6.1;5.5;;;;;;;16.32;91.46387;941.5844;;;;
2022/08/08 02:08:20;;;;;;;5.5;5;;;;;;;16.34;91.62988;941.5489;;;;
2022/08/08 02:10:47;;;;;;;5.6;5.1;;;;;;;16.41;91.58691;941.5652;;;;
2022/08/08 02:13:14;;;;;;;5.5;5;;;;;;;16.41;91.43652;941.4897;;;;
2022/08/08 02:15:39;;;;;;;6;5.3;;;;;;;16.41;91.04297;941.4567;;;;
2022/08/08 02:18:05;;;;;;;8.3;5;;;;;;;16.31;89.75977;941.5283;;;;
2022/08/08 02:20:31;;;;;;;4.9;4.4;;;;;;;16.15;90.44531;941.5709;;;;
2022/08/08 02:22:56;;;;;;;4.6;4.2;;;;;;;16.11;89.88281;941.5767;;;;
2022/08/08 02:25:22;;;;;;;4.6;4.1;;;;;;;16.02;90.18555;941.5822;;;;
2022/08/08 02:27:47;;;;;;;5.1;4.6;;;;;;;16.05;90.94336;941.5667;;;;
2022/08/08 02:30:12;;;;;;;5.7;4.8;;;;;;;16.08;90.96191;941.5633;;;;
2022/08/08 02:32:38;;;;;;;9.6;5;;;;;;;16;90.95703;941.5916;;;;
2022/08/08 02:35:03;;;;;;;4.8;4.3;;;;;;;15.82;89.38184;941.6247;;;;
2022/08/08 02:37:31;;;;;;;5;4.3;;;;;;;15.67;90.72754;941.63;;;;
2022/08/08 02:39:57;;;;;;;7.2;4.7;;;;;;;15.58;90.87988;941.6234;;;;
2022/08/08 02:42:22;;;;;;;5.4;4.7;;;;;;;15.67;90.96973;941.6445;;;;
2022/08/08 02:44:47;;;;;;;5.7;5.1;;;;;;;15.66;90.87402;941.6028;;;;
2022/08/08 02:47:12;;;;;;;5.3;4.8;;;;;;;15.61;91.17871;941.6661;;;;
2022/08/08 02:49:38;;;;;;;5.6;5;;;;;;;15.6;91.54395;941.6349;;;;
2022/08/08 02:52:14;;;;;;;5.5;5;;;;;;;15.59;91.56543;941.7256;;;;
2022/08/08 02:54:39;;;;;;;6.6;4.5;;;;;;;15.52;91.91992;941.7176;;;;
2022/08/08 02:58:24;;;;;;;5.4;4.8;;;;;;;15.5;92.77051;941.7266;;;;
2022/08/08 03:00:49;;;;;;;7.3;5.6;;;;;;;15.52;93.53711;941.7729;;;;
2022/08/08 03:03:14;;;;;;;5.8;5.3;;;;;;;15.51;93.96191;941.8075;;;;
2022/08/08 03:05:41;;;;;;;6.8;5.6;;;;;;;15.64;94.06055;941.7739;;;;
2022/08/08 03:08:06;;;;;;;6.6;6;;;;;;;15.71;94.4209;941.7921;;;;
2022/08/08 03:10:34;;;;;;;7.4;6.1;;;;;;;15.79;94.3457;941.8342;;;;
2022/08/08 03:12:59;;;;;;;6.2;5.6;;;;;;;15.87;93.9707;941.8397;;;;
2022/08/08 03:15:58;;;;;;;6.2;5.6;;;;;;;15.87;93.79688;941.851;;;;
2022/08/08 03:18:23;;;;;;;5.9;5.4;;;;;;;15.92;93.5752;941.8901;;;;
2022/08/08 03:20:51;;;;;;;5.5;5;;;;;;;16.03;92.88379;941.9459;;;;
2022/08/08 03:23:14;;;;;;;6;5.4;;;;;;;16.05;92.65625;941.8961;;;;
2022/08/08 03:25:39;;;;;;;5.6;5.1;;;;;;;16.07;92.52148;941.875;;;;
2022/08/08 03:28:04;;;;;;;7.9;5.5;;;;;;;16.08;92.51367;941.8814;;;;
2022/08/08 03:30:30;;;;;;;7.6;5.2;;;;;;;16.12;92.20898;941.8651;;;;
2022/08/08 03:35:22;;;;;;;5.7;4.9;;;;;;;15.98;91.50977;941.9009;;;;
2022/08/08 03:37:47;;;;;;;6.5;4.7;;;;;;;15.98;91.63672;941.8206;;;;
2022/08/08 03:40:19;;;;;;;8.5;5.1;;;;;;;15.88;92.28516;941.875;;;;
2022/08/08 03:42:43;;;;;;;6.6;5.3;;;;;;;15.87;92.36328;941.8766;;;;
2022/08/08 03:45:11;;;;;;;7.1;5.2;;;;;;;15.91;92.59277;941.8837;;;;
2022/08/08 03:47:37;;;;;;;5.9;5.3;;;;;;;15.99;92.75879;941.9194;;;;
2022/08/08 03:50:04;;;;;;;6.1;5.1;;;;;;;16.07;92.30176;941.9216;;;;
2022/08/08 03:52:30;;;;;;;5.3;4.8;;;;;;;16.08;91.94727;941.9304;;;;
2022/08/08 03:54:56;;;;;;;5.5;4.8;;;;;;;16.2;91.4043;941.9417;;;;
2022/08/08 03:57:21;;;;;;;5.9;4.8;;;;;;;16.16;91.14063;941.8857;;;;
2022/08/08 03:59:47;;;;;;;6.5;4.7;;;;;;;16.23;90.44824;941.9507;;;;
2022/08/08 04:02:33;;;;;;;5.3;4.8;;;;;;;16.21;90.31738;941.9537;;;;
2022/08/08 04:05:02;;;;;;;5.9;5.1;;;;;;;16.26;90.15723;941.9456;;;;
2022/08/08 04:07:27;;;;;;;5.2;4.6;;;;;;;16.3;90.3125;941.9182;;;;
2022/08/08 04:09:52;;;;;;;5.2;4.7;;;;;;;16.3;90.1416;941.9478;;;;
2022/08/08 04:12:18;;;;;;;5.8;4.8;;;;;;;16.33;90.49414;941.8696;;;;
2022/08/08 04:14:45;;;;;;;5.9;4.5;;;;;;;16.34;90.76172;941.9122;;;;
2022/08/08 04:17:10;;;;;;;5.8;4.8;;;;;;;16.37;90.21191;941.9232;;;;
2022/08/08 04:19:38;;;;;;;4.9;4.4;;;;;;;16.38;89.62402;941.8878;;;;
2022/08/08 04:22:03;;;;;;;5.8;4.5;;;;;;;16.37;89.8877;941.8855;;;;
2022/08/08 04:24:31;;;;;;;5.8;4.6;;;;;;;16.4;89.74316;941.8836;;;;
2022/08/08 04:26:56;;;;;;;5.2;4.5;;;;;;;16.44;89.9375;941.903;;;;
2022/08/08 04:29:24;;;;;;;6.2;4.7;;;;;;;16.43;91.02344;941.9183;;;;
2022/08/08 04:31:49;;;;;;;5.6;5.1;;;;;;;16.48;90.79004;941.9581;;;;
2022/08/08 04:34:17;;;;;;;5.4;4.9;;;;;;;16.56;90.04492;941.9598;;;;
2022/08/08 04:36:42;;;;;;;5.3;4.8;;;;;;;16.54;89.92285;941.9963;;;;
2022/08/08 04:39:07;;;;;;;5.2;4.7;;;;;;;16.56;89.98438;942.0427;;;;
2022/08/08 04:41:38;;;;;;;5;4.6;;;;;;;16.61;90.75781;942.052;;;;
2022/08/08 04:44:08;;;;;;;5.8;4.8;;;;;;;16.65;90.01465;942.1083;;;;
2022/08/08 04:46:39;;;;;;;5.3;4.8;;;;;;;16.65;90.49121;942.1348;;;;
2022/08/08 04:49:07;;;;;;;7.2;5;;;;;;;16.72;89.62402;942.1498;;;;
2022/08/08 04:51:33;;;;;;;5.5;4.9;;;;;;;16.7;89.28516;942.1002;;;;
2022/08/08 04:54:01;;;;;;;5.1;4.6;;;;;;;16.65;88.93848;942.0729;;;;
2022/08/08 04:56:26;;;;;;;7.8;4.6;;;;;;;16.64;88.70508;942.1381;;;;
2022/08/08 04:58:53;;;;;;;5.5;4.6;;;;;;;16.65;89.06543;942.1389;;;;
2022/08/08 05:01:19;;;;;;;5.1;4.6;;;;;;;16.74;89.22461;942.2197;;;;
2022/08/08 05:03:48;;;;;;;5.9;5;;;;;;;16.82;89.07715;942.2399;;;;
2022/08/08 05:06:13;;;;;;;5.5;4.7;;;;;;;16.84;88.0957;942.2899;;;;
2022/08/08 05:08:40;;;;;;;5.3;4.8;;;;;;;16.81;87.45215;942.269;;;;
2022/08/08 05:11:06;;;;;;;4.8;4.3;;;;;;;16.78;87.25098;942.3022;;;;
2022/08/08 05:13:32;;;;;;;4.7;4.2;;;;;;;16.82;87.89551;942.2946;;;;
2022/08/08 05:15:58;;;;;;;6.1;4.6;;;;;;;16.91;88.0293;942.336;;;;
2022/08/08 05:18:24;;;;;;;4.7;4.3;;;;;;;17;87.8623;942.3448;;;;
2022/08/08 05:20:49;;;;;;;4.8;4.4;;;;;;;17.08;88.09863;942.2898;;;;
2022/08/08 05:23:18;;;;;;;5.3;4.5;;;;;;;17.12;86.81934;942.394;;;;
2022/08/08 05:25:42;;;;;;;5.3;4.6;;;;;;;17.16;86.66406;942.3759;;;;
2022/08/08 05:28:08;;;;;;;5;4.3;;;;;;;17.24;86.60059;942.3802;;;;
2022/08/08 05:30:33;;;;;;;5.5;4.4;;;;;;;17.33;85.96875;942.3875;;;;
2022/08/08 05:33:01;;;;;;;4.5;4.1;;;;;;;17.45;85.36621;942.4494;;;;
2022/08/08 05:35:26;;;;;;;5.6;4.1;;;;;;;17.55;84.05078;942.4677;;;;
2022/08/08 05:37:51;;;;;;;5.4;4.1;;;;;;;17.5;84.32031;942.5092;;;;
2022/08/08 05:40:17;;;;;;;5.1;4.4;;;;;;;17.53;86.12402;942.5097;;;;
2022/08/08 05:42:46;;;;;;;5;4.4;;;;;;;17.42;86.47266;942.5798;;;;
2022/08/08 05:45:13;;;;;;;6.1;4.3;;;;;;;17.33;87.44238;942.5677;;;;
2022/08/08 05:47:44;;;;;;;6.6;4.7;;;;;;;17.09;88.6084;942.5906;;;;
2022/08/08 05:50:15;;;;;;;9.9;4.9;;;;;;;17.12;88.11719;942.6619;;;;
2022/08/08 05:52:41;;;;;;;10.3;5.3;;;;;;;17.16;88.12695;942.664;;;;
2022/08/08 05:55:11;;;;;;;6;5.1;;;;;;;17.24;87.80469;942.6934;;;;
2022/08/08 05:57:43;;;;;;;7;5.4;;;;;;;17.3;88.04004;942.6719;;;;
2022/08/08 06:00:08;;;;;;;5.8;5.3;;;;;;;17.44;87.76367;942.6886;;;;
2022/08/08 06:05:08;;;;;;;5.9;5;;;;;;;17.58;87.39941;942.729;;;;
2022/08/08 06:07:34;;;;;;;6.9;4.8;;;;;;;18.04;86.96875;942.6911;;;;
2022/08/08 06:10:03;;;;;;;4.2;3.8;;;;;;;18.59;81.21191;942.7208;;;;
2022/08/08 06:12:27;;;;;;;4.3;3.6;;;;;;;18.84;79.43359;942.6372;;;;
2022/08/08 06:14:54;;;;;;;4.2;3.6;;;;;;;19.31;77.15332;942.6691;;;;
2022/08/08 06:17:23;;;;;;;3.6;3.3;;;;;;;19.8;74.84961;942.6699;;;;
2022/08/08 06:19:53;;;;;;;4.2;3.8;;;;;;;20.34;73.67871;942.6478;;;;
2022/08/08 06:22:18;;;;;;;4;3.7;;;;;;;21.16;71.7666;942.6396;;;;
2022/08/08 06:24:45;;;;;;;5;4.2;;;;;;;22.41;65.20117;942.6228;;;;
2022/08/08 06:27:10;;;;;;;4.3;3.9;;;;;;;23.21;61.93457;942.62;;;;
2022/08/08 06:29:35;;;;;;;3.9;3;;;;;;;24.31;59.22461;942.6184;;;;
2022/08/08 06:32:00;;;;;;;3.6;3.1;;;;;;;24.64;56.82715;942.627;;;;
2022/08/08 06:34:25;;;;;;;4.8;3.5;;;;;;;25.35;55.3125;942.632;;;;
2022/08/08 06:36:50;;;;;;;4.7;3.4;;;;;;;25.1;55.32813;942.6516;;;;
2022/08/08 06:39:16;;;;;;;3.9;3.6;;;;;;;24.31;57.91699;942.6094;;;;
2022/08/08 06:41:43;;;;;;;3.6;3.2;;;;;;;24.53;56.40234;942.6478;;;;
2022/08/08 06:44:13;;;;;;;4.8;3.2;;;;;;;24.77;55.1582;942.6716;;;;
2022/08/08 06:46:45;;;;;;;3.3;3;;;;;;;23.11;59.95703;942.6347;;;;
2022/08/08 06:49:13;;;;;;;4.1;3.7;;;;;;;23.42;59.82324;942.7344;;;;
2022/08/08 06:51:38;;;;;;;3.6;3.3;;;;;;;23.65;60.31348;942.7488;;;;
2022/08/08 06:54:06;;;;;;;3.4;3.1;;;;;;;23.71;59.88574;942.7092;;;;
2022/08/08 06:59:13;;;;;;;3.4;3.1;;;;;;;27.03;50.75488;942.79;;;;
2022/08/08 07:01:43;;;;;;;3.8;2.9;;;;;;;27.9;48.25195;942.7974;;;;
2022/08/08 07:04:08;;;;;;;3.1;2.8;;;;;;;28.21;46.72949;942.7873;;;;
2022/08/08 07:06:34;;;;;;;3.5;3.2;;;;;;;29.31;44.56738;942.7842;;;;
2022/08/08 07:09:00;;;;;;;3.1;2.9;;;;;;;30.43;41.93164;942.7723;;;;
2022/08/08 07:11:25;;;;;;;3;2.8;;;;;;;29.96;42.83008;942.7308;;;;
2022/08/08 07:13:50;;;;;;;3.4;3.1;;;;;;;31.3;40.12109;942.7389;;;;
2022/08/08 07:16:15;;;;;;;3.3;2.9;;;;;;;31.7;39.00684;942.7048;;;;
2022/08/08 07:18:40;;;;;;;3.4;3.1;;;;;;;31.56;38.91113;942.7593;;;;
2022/08/08 07:21:05;;;;;;;2.9;2.7;;;;;;;32.15;38.08789;942.7225;;;;
2022/08/08 07:23:30;;;;;;;3.9;3.1;;;;;;;32.43;37.40234;942.7203;;;;
2022/08/08 07:25:55;;;;;;;3.3;3;;;;;;;30.66;40.3623;942.7667;;;;
2022/08/08 07:28:21;;;;;;;3.2;2.8;;;;;;;30.29;40.29492;942.7915;;;;
2022/08/08 07:30:48;;;;;;;3.1;2.8;;;;;;;28.73;43.02246;942.8069;;;;
2022/08/08 07:33:14;;;;;;;3.1;2.9;;;;;;;29.1;43.12988;942.7736;;;;
2022/08/08 07:35:43;;;;;;;3.1;2.9;;;;;;;31.1;39.75586;942.8344;;;;
2022/08/08 07:38:08;;;;;;;2.9;2.7;;;;;;;31.98;39.57031;942.7497;;;;
2022/08/08 07:40:33;;;;;;;3.1;2.8;;;;;;;31.49;38.58203;942.842;;;;
2022/08/08 07:42:58;;;;;;;3;2.7;;;;;;;32.83;36.77539;942.8038;;;;
2022/08/08 07:45:26;;;;;;;2.6;2.4;;;;;;;32.61;36.19336;942.8205;;;;
2022/08/08 07:47:53;;;;;;;3;2.6;;;;;;;32.41;37.02832;942.7594;;;;
2022/08/08 07:50:21;;;;;;;3.1;2.8;;;;;;;32.97;36.12598;942.7778;;;;
2022/08/08 07:52:46;;;;;;;2.7;2.5;;;;;;;31.7;36.08496;942.7637;;;;
2022/08/08 07:55:12;;;;;;;3.1;2.8;;;;;;;31.28;39.29395;942.786;;;;
2022/08/08 07:57:42;;;;;;;2.8;2.6;;;;;;;32.81;37.06152;942.7758;;;;
2022/08/08 08:00:09;;;;;;;2.6;2.4;;;;;;;32.2;38.10254;942.7516;;;;
2022/08/08 08:02:36;;;;;;;2.9;2.5;;;;;;;33.03;35.58984;942.7397;;;;
2022/08/08 08:05:01;;;;;;;2.4;2.2;;;;;;;34.08;33.7334;942.7603;;;;
2022/08/08 08:07:26;;;;;;;2.5;2.3;;;;;;;33.78;34.54102;942.7224;;;;
2022/08/08 08:09:51;;;;;;;2.6;2.3;;;;;;;32.86;35.0957;942.6822;;;;
2022/08/08 08:12:16;;;;;;;2.5;2.3;;;;;;;35.14;31.80859;942.6786;;;;
2022/08/08 08:14:45;;;;;;;2.5;1.9;;;;;;;35.77;31.05469;942.6686;;;;
2022/08/08 08:17:14;;;;;;;2.2;2;;;;;;;36;30.3584;942.6116;;;;
2022/08/08 08:19:39;;;;;;;2.5;2.2;;;;;;;34.63;32.41309;942.6421;;;;
2022/08/08 08:22:05;;;;;;;2.2;2;;;;;;;34.42;33.91602;942.6359;;;;
2022/08/08 08:24:30;;;;;;;3.1;2.1;;;;;;;34.26;33.43359;942.6584;;;;
2022/08/08 08:27:00;;;;;;;2.5;2.2;;;;;;;33.11;36.0293;942.6523;;;;
2022/08/08 08:29:32;;;;;;;3.1;1.9;;;;;;;34.01;33.87402;942.6654;;;;
2022/08/08 08:32:00;;;;;;;2.1;2;;;;;;;35.56;30.85938;942.5977;;;;
2022/08/08 08:34:25;;;;;;;2.9;1.9;;;;;;;33.49;34.78418;942.6445;;;;
2022/08/08 08:36:52;;;;;;;2.8;2;;;;;;;32.81;35.70508;942.558;;;;
2022/08/08 08:39:17;;;;;;;2.4;2.2;;;;;;;30.1;40.99414;942.579;;;;
2022/08/08 08:41:44;;;;;;;2.3;2.1;;;;;;;32.02;37.41699;942.5531;;;;
2022/08/08 08:44:09;;;;;;;2.2;2;;;;;;;30.86;40.45313;942.5895;;;;
2022/08/08 08:46:37;;;;;;;1.9;1.8;;;;;;;33.39;35.28223;942.6525;;;;
2022/08/08 08:49:02;;;;;;;2.1;2;;;;;;;32.69;37.78418;942.627;;;;
2022/08/08 08:51:31;;;;;;;3.8;1.8;;;;;;;34.33;32.34375;942.6714;;;;
2022/08/08 08:54:00;;;;;;;1.8;1.7;;;;;;;33.57;34.68262;942.6981;;;;
2022/08/08 08:56:25;;;;;;;2.7;1.7;;;;;;;34.43;31.50684;942.6599;;;;
2022/08/08 08:58:53;;;;;;;2.7;1.9;;;;;;;32.68;36.25879;942.6383;;;;
2022/08/08 09:01:18;;;;;;;2;1.9;;;;;;;31.25;39.24219;942.627;;;;
2022/08/08 09:03:43;;;;;;;1.8;1.7;;;;;;;32.67;36.20996;942.6654;;;;
2022/08/08 09:06:08;;;;;;;2.7;1.8;;;;;;;33.3;33.30371;942.7004;;;;
2022/08/08 09:08:34;;;;;;;3.1;1.9;;;;;;;32.02;37.06934;942.6873;;;;
2022/08/08 09:10:59;;;;;;;2.1;1.9;;;;;;;33.26;34.93457;942.707;;;;
2022/08/08 09:13:24;;;;;;;1.9;1.8;;;;;;;32.34;36.8916;942.6812;;;;
2022/08/08 09:15:56;;;;;;;1.6;1.5;;;;;;;32.78;35.99121;942.6892;;;;
2022/08/08 09:18:22;;;;;;;2.2;1.7;;;;;;;33.43;34.62402;942.7177;;;;
2022/08/08 09:20:47;;;;;;;2.1;1.9;;;;;;;30.68;39.43262;942.7592;;;;
2022/08/08 09:23:12;;;;;;;2.7;2.2;;;;;;;31.71;38.30176;942.7502;;;;
2022/08/08 09:25:39;;;;;;;2.3;1.9;;;;;;;33.31;34.91406;942.706;;;;
2022/08/08 09:28:10;;;;;;;1.9;1.8;;;;;;;31.96;38.13086;942.6897;;;;
2022/08/08 09:30:30;;;;;;;4.2;1.9;;;;;;;32.75;36;942.6468;;;;
2022/08/08 09:32:55;;;;;;;9.5;4.6;;;;;;;32.41;37.48535;942.7029;;;;
2022/08/08 09:35:24;;;;;;;5.1;3.5;;;;;;;32.43;37.37793;942.6702;;;;
2022/08/08 09:37:48;;;;;;;2.4;2.2;;;;;;;31.95;38.02148;942.6834;;;;
2022/08/08 09:40:16;;;;;;;2.2;2;;;;;;;30.41;41.28418;942.6525;;;;
2022/08/08 09:42:48;;;;;;;2.6;2.4;;;;;;;29.83;43.46289;942.7216;;;;
2022/08/08 09:45:15;;;;;;;2.6;2.4;;;;;;;30.21;42.92578;942.6547;;;;
2022/08/08 09:47:50;;;;;;;4.8;2.5;;;;;;;27.68;48.46582;942.5442;;;;
2022/08/08 09:50:16;;;;;;;2.1;2;;;;;;;28.71;46.00781;942.6325;;;;
2022/08/08 09:52:41;;;;;;;3.5;2.2;;;;;;;28.01;47.38477;942.4814;;;;
2022/08/08 09:55:06;;;;;;;2.9;2.3;;;;;;;27.2;50.22754;942.6086;;;;
2022/08/08 09:57:39;;;;;;;2.9;2.5;;;;;;;28.02;48.27637;942.5955;;;;
2022/08/08 10:00:08;;;;;;;4.1;2.5;;;;;;;28.45;46.09961;942.5642;;;;
2022/08/08 10:02:38;;;;;;;5.1;2.9;;;;;;;27.21;50.37305;942.5622;;;;
2022/08/08 10:05:03;;;;;;;4;2.7;;;;;;;26.12;55.52539;942.588;;;;
2022/08/08 10:07:32;;;;;;;2.6;2.4;;;;;;;26.53;51.47949;942.557;;;;
2022/08/08 10:10:02;;;;;;;3.5;2.5;;;;;;;27.51;49.51465;942.5198;;;;
2022/08/08 10:12:26;;;;;;;3.3;3;;;;;;;27.54;49.27051;942.5089;;;;
2022/08/08 10:14:51;;;;;;;3.2;2.2;;;;;;;27.65;50.80176;942.4763;;;;
2022/08/08 10:17:17;;;;;;;2.2;2;;;;;;;28.73;45.37793;942.475;;;;
2022/08/08 10:19:42;;;;;;;3.6;2.1;;;;;;;28.64;46.04883;942.4476;;;;
2022/08/08 10:22:07;;;;;;;3.2;2.6;;;;;;;27.95;49.5166;942.467;;;;
2022/08/08 10:24:32;;;;;;;2.4;2.1;;;;;;;28.8;43.79102;942.4858;;;;
2022/08/08 10:26:57;;;;;;;2.8;2.6;;;;;;;27.81;46.88867;942.4739;;;;
2022/08/08 10:29:25;;;;;;;3.1;2.2;;;;;;;26.17;53.5332;942.4705;;;;
2022/08/08 10:34:16;;;;;;;2.9;2.6;;;;;;;26.46;52.69141;942.4852;;;;
2022/08/08 10:36:41;;;;;;;2.3;2.1;;;;;;;26.75;51.01953;942.4469;;;;
2022/08/08 10:39:08;;;;;;;2.5;1.9;;;;;;;28.11;45.73145;942.4534;;;;
2022/08/08 10:41:33;;;;;;;2.3;1.9;;;;;;;28.51;46.15332;942.4889;;;;
2022/08/08 10:43:59;;;;;;;3.6;2.5;;;;;;;27.94;47.58008;942.4462;;;;
2022/08/08 10:46:29;;;;;;;2.3;2.1;;;;;;;28.21;45.77734;942.432;;;;
2022/08/08 10:48:49;;;;;;;2.4;1.9;;;;;;;27.78;47.78809;942.4716;;;;
2022/08/08 10:51:20;;;;;;;2.8;1.9;;;;;;;28.77;45.26465;942.442;;;;
2022/08/08 10:53:48;;;;;;;3;2.1;;;;;;;28.54;46.21582;942.4076;;;;
2022/08/08 10:56:13;;;;;;;2;1.8;;;;;;;29;43.13184;942.448;;;;
2022/08/08 10:58:41;;;;;;;2.1;1.9;;;;;;;28.88;43.88281;942.4089;;;;
2022/08/08 11:01:06;;;;;;;2.4;2;;;;;;;29.05;43.73242;942.4291;;;;
2022/08/08 11:03:37;;;;;;;2.1;1.9;;;;;;;29.35;43.17773;942.4651;;;;
2022/08/08 11:06:02;;;;;;;2;1.8;;;;;;;27.55;47.87012;942.3597;;;;
2022/08/08 11:08:35;;;;;;;3.2;2.1;;;;;;;27.83;46.5459;942.4127;;;;
2022/08/08 11:11:02;;;;;;;2.8;2;;;;;;;28.07;46.23926;942.399;;;;
2022/08/08 11:13:27;;;;;;;1.8;1.7;;;;;;;28.54;44.50293;942.3594;;;;
2022/08/08 11:16:01;;;;;;;1.7;1.6;;;;;;;29.73;41.8418;942.4115;;;;
2022/08/08 11:18:29;;;;;;;1.8;1.7;;;;;;;29.98;40.11133;942.3836;;;;
2022/08/08 11:20:53;;;;;;;1.6;1.5;;;;;;;30.04;43.35156;942.3986;;;;
2022/08/08 11:23:18;;;;;;;1.7;1.6;;;;;;;29.62;41.23633;942.405;;;;
2022/08/08 11:25:50;;;;;;;2.2;1.7;;;;;;;29.6;41.42578;942.4062;;;;
2022/08/08 11:28:21;;;;;;;1.7;1.6;;;;;;;30.33;39.59375;942.3886;;;;
2022/08/08 11:30:46;;;;;;;1.9;1.6;;;;;;;30.15;39.92383;942.4185;;;;
2022/08/08 11:33:13;;;;;;;1.7;1.6;;;;;;;30.66;40.04102;942.2786;;;;
2022/08/08 11:35:38;;;;;;;4.8;1.7;;;;;;;30.58;39.60352;942.27;;;;
2022/08/08 11:38:09;;;;;;;2.1;1.6;;;;;;;30.91;38.89063;942.2958;;;;
2022/08/08 11:40:37;;;;;;;2.3;1.8;;;;;;;30.52;39.53906;942.2787;;;;
2022/08/08 11:43:02;;;;;;;1.5;1.4;;;;;;;29.88;40.44922;942.2941;;;;
2022/08/08 11:45:27;;;;;;;1.6;1.5;;;;;;;29.72;41.69824;942.2969;;;;
2022/08/08 11:47:59;;;;;;;1.6;1.5;;;;;;;29.1;42.40332;942.2723;;;;
2022/08/08 11:50:28;;;;;;;2.2;1.6;;;;;;;28.43;43.24316;942.2431;;;;
2022/08/08 11:52:55;;;;;;;1.6;1.5;;;;;;;27.53;44.89063;942.259;;;;
2022/08/08 11:55:25;;;;;;;1.7;1.6;;;;;;;26.76;46.15137;942.2239;;;;
2022/08/08 11:57:47;;;;;;;1.6;1.5;;;;;;;26.75;47.22852;942.2858;;;;
2022/08/08 12:00:13;;;;;;;4.2;1.9;;;;;;;26.64;47.32324;942.2086;;;;
2022/08/08 12:02:38;;;;;;;2.3;1.9;;;;;;;26.43;49.2793;942.2275;;;;
2022/08/08 12:05:09;;;;;;;1.6;1.5;;;;;;;26.69;46.7959;942.2517;;;;
2022/08/08 12:07:38;;;;;;;1.7;1.6;;;;;;;26.7;50.26855;942.2277;;;;
2022/08/08 12:10:05;;;;;;;2.3;1.6;;;;;;;26.99;46.06836;942.2241;;;;
2022/08/08 12:12:34;;;;;;;3.3;2;;;;;;;27.12;45.11035;942.2509;;;;
2022/08/08 12:14:58;;;;;;;1.7;1.6;;;;;;;25.94;50.64453;942.1194;;;;
2022/08/08 12:17:26;;;;;;;2.5;1.6;;;;;;;25.91;51.71582;942.1984;;;;
2022/08/08 12:19:54;;;;;;;2.5;1.5;;;;;;;25.9;52.05664;942.1858;;;;
2022/08/08 12:22:19;;;;;;;1.8;1.7;;;;;;;25.32;52.5332;942.2076;;;;
2022/08/08 12:24:48;;;;;;;1.8;1.7;;;;;;;25.6;55.31836;942.1767;;;;
2022/08/08 12:27:09;;;;;;;1.8;1.7;;;;;;;26;50.54395;942.1298;;;;
2022/08/08 12:29:36;;;;;;;1.9;1.7;;;;;;;25.66;50.13867;942.1058;;;;
2022/08/08 12:32:02;;;;;;;2.1;1.7;;;;;;;25.58;50.16602;942.1111;;;;
2022/08/08 12:34:29;;;;;;;1.5;1.4;;;;;;;25.54;49.8291;942.1783;;;;
2022/08/08 12:36:54;;;;;;;2.2;1.6;;;;;;;25.81;47.875;942.1984;;;;
2022/08/08 12:39:21;;;;;;;3.3;1.8;;;;;;;26;48.79395;942.1478;;;;
2022/08/08 12:41:46;;;;;;;1.6;1.5;;;;;;;26.11;47.74121;942.1106;;;;
2022/08/08 12:44:15;;;;;;;4.4;1.8;;;;;;;26.31;48.99414;942.1025;;;;
2022/08/08 12:46:45;;;;;;;3.1;1.8;;;;;;;25.86;51.14258;942.1517;;;;
2022/08/08 12:49:12;;;;;;;1.8;1.7;;;;;;;25.68;49.39746;942.1191;;;;
2022/08/08 12:51:37;;;;;;;1.5;1.4;;;;;;;25.99;48.63867;942.1286;;;;
2022/08/08 12:54:02;;;;;;;1.8;1.7;;;;;;;25.92;51.45703;942.1383;;;;
2022/08/08 12:56:31;;;;;;;1.9;1.6;;;;;;;25.87;49.81934;942.1503;;;;
2022/08/08 12:58:56;;;;;;;1.6;1.5;;;;;;;26.16;49;942.0963;;;;
2022/08/08 13:01:26;;;;;;;2.7;1.8;;;;;;;26.31;47.99902;942.1262;;;;
2022/08/08 13:03:52;;;;;;;1.7;1.4;;;;;;;26.48;49.33105;942.093;;;;
2022/08/08 13:06:17;;;;;;;2.2;1.5;;;;;;;26.71;46.46582;942.1406;;;;
2022/08/08 13:08:47;;;;;;;2.4;1.6;;;;;;;26.45;47.87207;942.1272;;;;
2022/08/08 13:11:12;;;;;;;2.2;1.7;;;;;;;26.54;47.50195;942.1156;;;;
2022/08/08 13:13:38;;;;;;;1.7;1.5;;;;;;;26.59;46.88086;942.0967;;;;
2022/08/08 13:16:03;;;;;;;1.6;1.5;;;;;;;26.79;47.41113;942.0818;;;;
2022/08/08 13:18:28;;;;;;;1.6;1.5;;;;;;;26.99;44.33789;942.04;;;;
2022/08/08 13:20:55;;;;;;;2.4;1.5;;;;;;;27.25;43.98438;942.0446;;;;
2022/08/08 13:23:20;;;;;;;1.9;1.6;;;;;;;27.42;45.15234;942.0033;;;;
2022/08/08 13:25:48;;;;;;;1.7;1.6;;;;;;;27.36;44.41016;942.0778;;;;
2022/08/08 13:28:13;;;;;;;2;1.8;;;;;;;26.78;47.25488;942.0117;;;;
2022/08/08 13:30:38;;;;;;;3.1;1.7;;;;;;;26.95;45.33008;941.9922;;;;
2022/08/08 13:33:08;;;;;;;1.7;1.6;;;;;;;26.7;47.88672;941.959;;;;
2022/08/08 13:35:33;;;;;;;4;1.9;;;;;;;26.52;48.11621;941.9654;;;;
2022/08/08 13:37:59;;;;;;;1.6;1.5;;;;;;;26.53;48.48438;941.9023;;;;
2022/08/08 13:40:24;;;;;;;2.4;1.8;;;;;;;26.27;46.62207;941.9991;;;;
2022/08/08 13:42:52;;;;;;;1.9;1.7;;;;;;;26.49;46.45508;941.9155;;;;
2022/08/08 13:45:17;;;;;;;1.9;1.7;;;;;;;26.67;45.29004;941.9905;;;;
2022/08/08 13:47:45;;;;;;;1.6;1.5;;;;;;;26.61;45.79297;941.963;;;;
2022/08/08 13:50:10;;;;;;;1.9;1.7;;;;;;;26.33;48.73438;941.9424;;;;
2022/08/08 13:52:38;;;;;;;1.8;1.7;;;;;;;26.66;46.8877;941.9037;;;;
2022/08/08 13:55:03;;;;;;;2;1.6;;;;;;;26.74;46.41016;941.9258;;;;
2022/08/08 13:57:28;;;;;;;1.9;1.7;;;;;;;26.52;48.0332;941.8984;;;;
2022/08/08 13:59:57;;;;;;;2.5;1.7;;;;;;;26.17;47.41602;941.9291;;;;
2022/08/08 14:02:22;;;;;;;1.9;1.7;;;;;;;26.11;47.87012;941.919;;;;
2022/08/08 14:04:50;;;;;;;2.3;1.6;;;;;;;26.21;45.62305;941.9459;;;;
2022/08/08 14:07:16;;;;;;;2.1;1.5;;;;;;;26.26;46.26563;941.9459;;;;
2022/08/08 14:09:43;;;;;;;3.1;1.6;;;;;;;26.37;46.50195;941.9614;;;;
2022/08/08 14:12:07;;;;;;;1.5;1.4;;;;;;;26.3;46.87402;941.9364;;;;
2022/08/08 14:14:33;;;;;;;2.7;1.7;;;;;;;26.5;44.53906;941.9197;;;;
2022/08/08 14:16:58;;;;;;;2;1.8;;;;;;;26.28;46.54004;941.9756;;;;
2022/08/08 14:19:25;;;;;;;1.6;1.5;;;;;;;26.45;45.20898;941.944;;;;
2022/08/08 14:21:52;;;;;;;1.7;1.6;;;;;;;26.61;44.25293;941.8836;;;;
2022/08/08 14:24:17;;;;;;;1.9;1.5;;;;;;;26.65;45.0752;941.9161;;;;
2022/08/08 14:26:45;;;;;;;2.7;1.8;;;;;;;26.32;48.95801;941.9006;;;;
2022/08/08 14:29:09;;;;;;;2;1.6;;;;;;;26.47;46.68945;941.9556;;;;
2022/08/08 14:31:35;;;;;;;3.9;1.7;;;;;;;26.57;45.83496;941.9044;;;;
2022/08/08 14:34:01;;;;;;;2.5;1.7;;;;;;;26.47;47.02148;941.8867;;;;